createdAt,value
2018-08-12T00:02:28.358Z,1.30
2018-08-12T00:04:56.883Z,1.40
2018-08-12T00:07:26.311Z,1.00
2018-08-12T00:09:55.111Z,1.30
2018-08-12T00:12:23.853Z,1.13
2018-08-12T00:14:52.892Z,1.20
2018-08-12T00:17:21.668Z,1.53
2018-08-12T00:19:50.431Z,1.20
2018-08-12T00:22:18.968Z,1.05
2018-08-12T00:24:47.559Z,1.40
2018-08-12T00:27:16.142Z,1.50
2018-08-12T00:29:44.680Z,1.30
2018-08-12T00:32:13.284Z,1.12
2018-08-12T00:34:41.983Z,1.30
2018-08-12T00:37:10.567Z,1.50
2018-08-12T00:39:39.084Z,1.63
2018-08-12T00:42:07.649Z,1.30
2018-08-12T00:44:36.177Z,1.63
2018-08-12T00:47:04.803Z,1.77
2018-08-12T00:49:33.379Z,1.03
2018-08-12T00:52:02.146Z,1.30
2018-08-12T00:54:30.733Z,1.30
2018-08-12T00:56:59.269Z,1.10
2018-08-12T00:59:27.859Z,1.30
2018-08-12T01:01:56.357Z,1.60
2018-08-12T01:04:24.959Z,1.20
2018-08-12T01:06:53.697Z,1.80
2018-08-12T01:09:22.542Z,1.50
2018-08-12T01:11:51.316Z,1.60
2018-08-12T01:14:20.007Z,1.70
2018-08-12T01:16:48.765Z,2.37
2018-08-12T01:19:17.711Z,1.93
2018-08-12T01:21:46.289Z,1.53
2018-08-12T01:24:14.840Z,1.30
2018-08-12T01:26:43.450Z,1.50
2018-08-12T01:29:12.007Z,1.67
2018-08-12T01:31:40.517Z,1.63
2018-08-12T01:34:09.046Z,1.30
2018-08-12T01:36:37.613Z,1.87
2018-08-12T01:39:07.102Z,1.40
2018-08-12T01:41:35.651Z,1.90
2018-08-12T01:44:04.361Z,1.90
2018-08-12T01:46:32.902Z,1.57
2018-08-12T01:49:01.444Z,1.47
2018-08-12T01:51:30.441Z,1.40
2018-08-12T01:53:59.009Z,1.47
2018-08-12T01:56:27.576Z,1.77
2018-08-12T01:58:56.163Z,1.60
2018-08-12T02:01:24.712Z,2.13
2018-08-12T02:03:53.247Z,1.90
2018-08-12T02:06:21.787Z,1.50
2018-08-12T02:08:50.345Z,1.40
2018-08-12T02:11:18.876Z,2.00
2018-08-12T02:13:47.443Z,1.83
2018-08-12T02:16:15.999Z,1.60
2018-08-12T02:18:44.957Z,1.60
2018-08-12T02:21:13.585Z,1.57
2018-08-12T02:23:42.192Z,1.82
2018-08-12T02:26:11.151Z,1.50
2018-08-12T02:28:39.764Z,1.37
2018-08-12T02:31:08.330Z,1.73
2018-08-12T02:33:39.875Z,1.50
2018-08-12T02:36:08.499Z,1.90
2018-08-12T02:38:37.062Z,1.40
2018-08-12T02:41:05.646Z,1.63
2018-08-12T02:43:34.221Z,1.60
2018-08-12T02:46:02.743Z,1.57
2018-08-12T02:48:31.303Z,1.67
2018-08-12T02:50:59.815Z,1.43
2018-08-12T02:53:28.367Z,1.60
2018-08-12T02:55:56.931Z,1.30
2018-08-12T02:58:25.467Z,1.70
2018-08-12T03:00:54.007Z,1.70
2018-08-12T03:03:22.599Z,1.30
2018-08-12T03:05:51.127Z,1.53
2018-08-12T03:08:19.713Z,2.07
2018-08-12T03:10:48.328Z,1.50
2018-08-12T03:13:16.948Z,1.60
2018-08-12T03:15:45.500Z,1.77
2018-08-12T03:18:14.074Z,1.77
2018-08-12T03:20:42.633Z,1.77
2018-08-12T03:23:11.185Z,1.43
2018-08-12T03:25:39.810Z,1.90
2018-08-12T03:28:08.394Z,1.70
2018-08-12T03:30:37.001Z,1.67
2018-08-12T03:33:05.520Z,2.00
2018-08-12T03:35:34.051Z,2.10
2018-08-12T03:38:02.649Z,2.00
2018-08-12T03:40:31.219Z,1.57
2018-08-12T03:42:59.771Z,2.07
2018-08-12T03:45:28.295Z,1.90
2018-08-12T03:47:56.863Z,1.67
2018-08-12T03:50:25.452Z,1.70
2018-08-12T03:52:54.015Z,1.77
2018-08-12T03:55:22.604Z,1.63
2018-08-12T03:57:51.116Z,1.57
2018-08-12T04:00:19.693Z,1.70
2018-08-12T04:02:48.880Z,1.70
2018-08-12T04:05:18.301Z,1.53
2018-08-12T04:07:46.889Z,2.13
2018-08-12T04:10:15.419Z,1.60
2018-08-12T04:12:43.952Z,1.53
2018-08-12T04:15:12.699Z,1.80
2018-08-12T04:17:41.546Z,1.37
2018-08-12T04:20:11.141Z,1.60
2018-08-12T04:22:39.705Z,1.90
2018-08-12T04:25:08.269Z,1.70
2018-08-12T04:27:36.878Z,1.57
2018-08-12T04:30:06.131Z,1.40
2018-08-12T04:32:34.666Z,1.53
2018-08-12T04:35:03.320Z,1.70
2018-08-12T04:37:31.897Z,1.70
2018-08-12T04:40:00.459Z,1.47
2018-08-12T04:42:28.965Z,1.80
2018-08-12T04:44:57.555Z,2.00
2018-08-12T04:47:26.112Z,2.60
2018-08-12T04:49:54.661Z,1.50
2018-08-12T04:52:23.226Z,2.13
2018-08-12T04:54:51.810Z,1.50
2018-08-12T04:57:20.597Z,2.23
2018-08-12T04:59:49.214Z,2.87
2018-08-12T05:02:17.906Z,1.97
2018-08-12T05:04:46.549Z,2.27
2018-08-12T05:07:15.107Z,1.40
2018-08-12T05:09:43.665Z,2.47
2018-08-12T05:12:12.284Z,2.23
2018-08-12T05:14:40.869Z,1.40
2018-08-12T05:17:09.410Z,2.40
2018-08-12T05:19:38.017Z,1.30
2018-08-12T05:22:06.732Z,1.57
2018-08-12T05:24:36.290Z,1.67
2018-08-12T05:27:05.828Z,1.83
2018-08-12T05:29:34.543Z,1.70
2018-08-12T05:32:03.899Z,2.53
2018-08-12T05:34:32.690Z,2.13
2018-08-12T05:37:01.399Z,1.80
2018-08-12T05:39:30.013Z,2.53
2018-08-12T05:41:58.577Z,2.33
2018-08-12T05:44:27.213Z,1.67
2018-08-12T05:46:55.754Z,1.50
2018-08-12T05:49:24.614Z,2.77
2018-08-12T05:51:54.608Z,2.07
2018-08-12T05:54:23.665Z,1.60
2018-08-12T05:56:52.621Z,1.70
2018-08-12T05:59:21.271Z,1.67
2018-08-12T06:01:49.884Z,2.00
2018-08-12T06:04:18.507Z,1.90
2018-08-12T06:06:47.054Z,1.87
2018-08-12T06:09:15.736Z,2.80
2018-08-12T06:11:44.332Z,2.33
2018-08-12T06:14:13.464Z,1.57
2018-08-12T06:16:42.153Z,1.47
2018-08-12T06:19:10.781Z,2.13
2018-08-12T06:21:39.469Z,1.70
2018-08-12T06:24:08.099Z,2.00
2018-08-12T06:26:36.682Z,2.10
2018-08-12T06:29:05.467Z,2.13
2018-08-12T06:31:34.085Z,1.53
2018-08-12T06:34:02.651Z,2.37
2018-08-12T06:36:31.200Z,1.60
2018-08-12T06:39:00.448Z,2.03
2018-08-12T06:41:29.039Z,1.97
2018-08-12T06:43:57.877Z,3.00
2018-08-12T06:46:26.556Z,1.50
2018-08-12T06:48:55.051Z,1.60
2018-08-12T06:51:23.914Z,1.27
2018-08-12T06:53:52.675Z,3.33
2018-08-12T06:56:22.187Z,1.70
2018-08-12T06:58:52.549Z,2.53
2018-08-12T07:01:21.211Z,1.40
2018-08-12T07:03:49.869Z,1.77
2018-08-12T07:06:18.471Z,2.07
2018-08-12T07:08:47.165Z,1.50
2018-08-12T07:11:15.724Z,2.87
2018-08-12T07:13:44.402Z,3.10
2018-08-12T07:16:12.954Z,2.62
2018-08-12T07:18:42.273Z,1.57
2018-08-12T07:21:12.179Z,2.33
2018-08-12T07:23:40.990Z,3.10
2018-08-12T07:26:09.645Z,3.37
2018-08-12T07:28:38.188Z,2.20
2018-08-12T07:31:06.764Z,1.97
2018-08-12T07:33:35.933Z,3.53
2018-08-12T07:36:04.897Z,2.30
2018-08-12T07:38:33.941Z,3.00
2018-08-12T07:41:03.209Z,3.27
2018-08-12T07:43:32.599Z,2.27
2018-08-12T07:46:03.398Z,3.93
2018-08-12T07:48:33.452Z,2.57
2018-08-12T07:51:03.050Z,3.27
2018-08-12T07:53:32.051Z,4.90
2018-08-12T07:56:00.929Z,3.47
2018-08-12T07:58:31.669Z,3.37
2018-08-12T08:01:00.602Z,2.57
2018-08-12T08:03:29.737Z,2.93
2018-08-12T08:05:58.741Z,4.33
2018-08-12T08:08:27.805Z,2.80
2018-08-12T08:10:56.789Z,2.83
2018-08-12T08:13:25.987Z,4.40
2018-08-12T08:15:54.956Z,3.90
2018-08-12T08:18:24.319Z,2.43
2018-08-12T08:20:53.800Z,3.10
2018-08-12T08:23:22.981Z,4.10
2018-08-12T08:25:52.096Z,2.50
2018-08-12T08:28:21.065Z,3.30
2018-08-12T08:30:50.153Z,3.62
2018-08-12T08:33:19.099Z,3.47
2018-08-12T08:35:49.476Z,3.37
2018-08-12T08:38:18.922Z,2.10
2018-08-12T08:40:49.721Z,3.27
2018-08-12T08:43:18.720Z,2.85
2018-08-12T08:45:47.846Z,3.67
2018-08-12T08:48:18.315Z,2.83
2018-08-12T08:50:47.473Z,4.27
2018-08-12T08:53:16.319Z,3.63
2018-08-12T08:55:45.297Z,3.73
2018-08-12T08:58:14.233Z,3.87
2018-08-12T09:00:43.125Z,3.27
2018-08-12T09:03:13.735Z,3.17
2018-08-12T09:05:42.732Z,3.57
2018-08-12T09:08:12.247Z,4.40
2018-08-12T09:10:41.331Z,2.67
2018-08-12T09:13:10.770Z,2.70
2018-08-12T09:15:39.815Z,2.53
2018-08-12T09:18:11.249Z,2.80
2018-08-12T09:20:40.212Z,3.00
2018-08-12T09:23:09.154Z,2.20
2018-08-12T09:25:38.075Z,2.60
2018-08-12T09:28:07.384Z,3.10
2018-08-12T09:30:36.752Z,2.90
2018-08-12T09:33:07.055Z,2.40
2018-08-12T09:35:36.107Z,2.87
2018-08-12T09:38:05.194Z,3.37
2018-08-12T09:40:34.180Z,2.97
2018-08-12T09:43:04.034Z,2.20
2018-08-12T09:45:33.141Z,2.17
2018-08-12T09:48:02.161Z,2.60
2018-08-12T09:50:31.204Z,2.80
2018-08-12T09:53:00.447Z,2.70
2018-08-12T09:55:29.745Z,2.00
2018-08-12T09:57:59.454Z,2.10
2018-08-12T10:00:32.713Z,2.67
2018-08-12T10:03:01.804Z,2.50
2018-08-12T10:05:33.837Z,1.70
2018-08-12T10:08:02.802Z,2.30
2018-08-12T10:10:31.932Z,2.63
2018-08-12T10:13:00.904Z,2.20
2018-08-12T10:15:30.079Z,1.60
2018-08-12T10:18:00.642Z,1.63
2018-08-12T10:20:29.669Z,1.77
2018-08-12T10:22:58.586Z,1.60
2018-08-12T10:25:27.636Z,2.13
2018-08-12T10:27:57.014Z,1.87
2018-08-12T10:30:26.011Z,1.80
2018-08-12T10:32:55.641Z,1.40
2018-08-12T10:35:24.965Z,1.63
2018-08-12T10:37:54.492Z,1.20
2018-08-12T10:40:23.538Z,1.33
2018-08-12T10:42:52.648Z,1.60
2018-08-12T10:45:21.800Z,1.20
2018-08-12T10:47:51.490Z,1.90
2018-08-12T10:50:22.108Z,1.80
2018-08-12T10:52:55.485Z,1.43
2018-08-12T10:55:27.580Z,1.40
2018-08-12T10:57:57.015Z,1.10
2018-08-12T11:00:27.967Z,1.00
2018-08-12T11:02:58.544Z,1.27
2018-08-12T11:05:27.656Z,1.70
2018-08-12T11:07:58.631Z,1.57
2018-08-12T11:10:28.981Z,1.50
2018-08-12T11:12:59.553Z,1.33
2018-08-12T11:15:28.826Z,1.30
2018-08-12T11:17:58.686Z,1.40
2018-08-12T11:20:28.342Z,1.17
2018-08-12T11:22:57.246Z,1.20
2018-08-12T11:25:26.449Z,1.33
2018-08-12T11:27:55.521Z,1.27
2018-08-12T11:30:25.686Z,1.37
2018-08-12T11:32:54.784Z,1.40
2018-08-12T11:35:23.905Z,1.40
2018-08-12T11:37:52.892Z,0.93
2018-08-12T11:40:22.288Z,0.97
2018-08-12T11:42:52.093Z,1.30
2018-08-12T11:45:22.430Z,1.30
2018-08-12T11:47:51.843Z,1.33
2018-08-12T11:50:20.865Z,1.20
2018-08-12T11:52:50.085Z,1.10
2018-08-12T11:55:19.857Z,1.33
2018-08-12T11:57:48.894Z,1.30
2018-08-12T12:00:19.735Z,1.40
2018-08-12T12:02:50.013Z,1.77
2018-08-12T12:05:19.110Z,1.10
2018-08-12T12:07:48.108Z,1.47
2018-08-12T12:10:19.216Z,1.83
2018-08-12T12:12:50.035Z,1.30
2018-08-12T12:15:19.264Z,1.20
2018-08-12T12:17:48.844Z,1.20
2018-08-12T12:20:18.541Z,1.60
2018-08-12T12:22:48.008Z,1.80
2018-08-12T12:25:19.149Z,1.93
2018-08-12T12:27:48.087Z,1.73
2018-08-12T12:30:18.410Z,1.50
2018-08-12T12:32:48.392Z,1.60
2018-08-12T12:35:18.209Z,1.30
2018-08-12T12:37:47.825Z,1.50
2018-08-12T12:40:18.654Z,1.42
2018-08-12T12:42:48.238Z,1.50
2018-08-12T12:45:17.736Z,1.40
2018-08-12T12:47:53.824Z,1.77
2018-08-12T12:50:26.043Z,1.40
2018-08-12T12:52:55.333Z,1.17
2018-08-12T12:55:25.310Z,1.47
2018-08-12T12:57:54.489Z,1.37
2018-08-12T13:00:26.465Z,1.50
2018-08-12T13:03:09.736Z,1.03
2018-08-12T13:05:39.120Z,1.20
2018-08-12T13:08:08.385Z,1.37
2018-08-12T13:10:37.458Z,1.10
2018-08-12T13:13:08.735Z,1.20
2018-08-12T13:15:37.904Z,0.93
2018-08-12T13:18:07.028Z,1.20
2018-08-12T13:20:36.366Z,1.30
2018-08-12T13:23:05.718Z,1.10
2018-08-12T13:25:34.793Z,1.30
2018-08-12T13:28:04.677Z,1.13
2018-08-12T13:30:33.718Z,1.67
2018-08-12T13:33:02.740Z,1.73
2018-08-12T13:35:31.795Z,1.10
2018-08-12T13:38:00.788Z,0.90
2018-08-12T13:40:30.808Z,1.03
2018-08-12T13:42:59.969Z,0.93
2018-08-12T13:45:29.058Z,1.23
2018-08-12T13:47:58.313Z,1.10
2018-08-12T13:50:27.658Z,1.17
2018-08-12T13:52:57.562Z,1.13
2018-08-12T13:55:26.624Z,1.00
2018-08-12T13:57:57.982Z,0.90
2018-08-12T14:00:31.868Z,1.47
2018-08-12T14:03:01.049Z,1.20
2018-08-12T14:05:30.148Z,1.15
2018-08-12T14:07:59.536Z,0.90
2018-08-12T14:10:28.581Z,1.00
2018-08-12T14:12:57.629Z,1.10
2018-08-12T14:15:26.806Z,1.00
2018-08-12T14:17:55.911Z,1.00
2018-08-12T14:20:24.908Z,1.02
2018-08-12T14:22:53.897Z,1.50
2018-08-12T14:25:23.639Z,1.67
2018-08-12T14:27:52.651Z,1.40
2018-08-12T14:30:22.619Z,1.67
2018-08-12T14:32:52.229Z,2.20
2018-08-12T14:35:21.171Z,1.83
2018-08-12T14:37:50.033Z,1.40
2018-08-12T14:40:19.025Z,1.63
2018-08-12T14:42:47.951Z,1.77
2018-08-12T14:45:17.038Z,1.10
2018-08-12T14:47:46.418Z,1.40
2018-08-12T14:50:18.516Z,1.50
2018-08-12T14:52:47.586Z,1.40
2018-08-12T14:55:18.187Z,1.20
2018-08-12T14:57:47.335Z,1.20
2018-08-12T15:00:21.414Z,0.80
2018-08-12T15:02:52.689Z,1.17
2018-08-12T15:05:22.371Z,1.03
2018-08-12T15:07:53.116Z,0.97
2018-08-12T15:10:23.778Z,1.27
2018-08-12T15:12:56.015Z,1.07
2018-08-12T15:15:26.259Z,1.00
2018-08-12T15:17:59.971Z,1.10
2018-08-12T15:24:10.891Z,1.00
2018-08-12T15:26:43.105Z,1.03
2018-08-12T15:29:13.949Z,1.20
2018-08-12T15:31:42.924Z,0.80
2018-08-12T15:34:15.152Z,0.80
2018-08-12T15:36:49.034Z,1.00
2018-08-12T15:39:25.314Z,1.00
2018-08-12T15:41:56.686Z,0.90
2018-08-12T15:44:25.952Z,1.00
2018-08-12T15:46:55.608Z,0.70
2018-08-12T15:49:24.791Z,0.97
2018-08-12T15:51:54.940Z,1.10
2018-08-12T15:54:26.199Z,1.07
2018-08-12T15:56:55.310Z,1.00
2018-08-12T15:59:24.340Z,1.20
2018-08-12T16:01:53.587Z,0.75
2018-08-12T16:04:24.550Z,0.90
2018-08-12T16:06:53.484Z,0.93
2018-08-12T16:09:26.309Z,0.77
2018-08-12T16:11:55.329Z,0.93
2018-08-12T16:14:26.653Z,0.75
2018-08-12T16:16:56.161Z,0.83
2018-08-12T16:19:25.944Z,0.87
2018-08-12T16:21:55.995Z,0.70
2018-08-12T16:24:27.172Z,0.97
2018-08-12T16:26:57.938Z,1.03
2018-08-12T16:29:27.971Z,0.80
2018-08-12T16:31:58.277Z,0.60
2018-08-12T16:34:29.891Z,0.90
2018-08-12T16:36:59.582Z,0.97
2018-08-12T16:39:29.141Z,0.70
2018-08-12T16:41:58.240Z,0.70
2018-08-12T16:44:27.256Z,0.87
2018-08-12T16:47:02.365Z,0.90
2018-08-12T16:49:31.313Z,0.87
2018-08-12T16:52:05.464Z,0.90
2018-08-12T16:54:52.202Z,0.77
2018-08-12T16:57:21.197Z,0.67
2018-08-12T16:59:53.442Z,0.90
2018-08-12T17:02:22.625Z,0.80
2018-08-12T17:04:51.728Z,1.00
2018-08-12T17:07:21.666Z,0.73
2018-08-12T17:09:52.920Z,0.70
2018-08-12T17:12:22.273Z,0.90
2018-08-12T17:14:51.402Z,0.83
2018-08-12T17:17:20.718Z,0.80
2018-08-12T17:19:51.572Z,0.90
2018-08-12T17:22:21.309Z,0.70
2018-08-12T17:24:52.129Z,0.80
2018-08-12T17:27:21.316Z,0.77
2018-08-12T17:29:56.160Z,1.10
2018-08-12T17:32:25.865Z,1.00
2018-08-12T17:35:01.013Z,0.87
2018-08-12T17:37:31.306Z,1.10
2018-08-12T17:40:01.570Z,0.83
2018-08-12T17:42:31.632Z,0.80
2018-08-12T17:45:00.774Z,1.00
2018-08-12T17:47:29.739Z,0.87
2018-08-12T17:50:00.919Z,0.80
2018-08-12T17:52:30.099Z,1.10
2018-08-12T17:54:59.530Z,0.87
2018-08-12T17:57:28.689Z,0.90
2018-08-12T18:00:00.219Z,0.97
2018-08-12T18:02:31.509Z,0.90
2018-08-12T18:05:00.553Z,1.17
2018-08-12T18:07:29.534Z,0.90
2018-08-12T18:10:00.045Z,1.10
2018-08-12T18:12:29.480Z,1.30
2018-08-12T18:14:58.563Z,1.00
2018-08-12T18:17:29.037Z,0.83
2018-08-12T18:19:59.152Z,1.03
2018-08-12T18:22:40.145Z,1.20
2018-08-12T18:25:11.405Z,1.00
2018-08-12T18:27:42.250Z,1.00
2018-08-12T18:30:14.504Z,1.10
2018-08-12T18:32:44.035Z,1.07
2018-08-12T18:35:14.302Z,1.73
2018-08-12T18:37:43.707Z,1.20
2018-08-12T18:40:14.185Z,1.20
2018-08-12T18:42:44.278Z,1.47
2018-08-12T18:45:14.382Z,1.30
2018-08-12T18:47:44.401Z,1.40
2018-08-12T18:50:18.084Z,1.07
2018-08-12T18:52:48.330Z,1.17
2018-08-12T18:55:18.348Z,1.00
2018-08-12T18:57:47.444Z,1.10
2018-08-12T19:00:16.668Z,1.40
2018-08-12T19:02:46.798Z,1.23
2018-08-12T19:05:16.170Z,1.20
2018-08-12T19:07:45.333Z,1.67
2018-08-12T19:10:14.832Z,1.20
2018-08-12T19:12:47.272Z,1.40
2018-08-12T19:15:24.390Z,1.15
2018-08-12T19:17:59.870Z,1.30
2018-08-12T19:20:30.098Z,1.20
2018-08-12T19:23:00.165Z,1.10
2018-08-12T19:25:30.694Z,1.10
2018-08-12T19:28:00.729Z,1.20
2018-08-12T19:30:32.107Z,1.30
2018-08-12T19:33:02.192Z,0.93
2018-08-12T19:35:31.415Z,1.30
2018-08-12T19:38:02.863Z,1.10
2018-08-12T19:40:33.709Z,1.40
2018-08-12T19:43:03.185Z,0.97
2018-08-12T19:45:33.738Z,1.30
2018-08-12T19:48:07.494Z,1.30
2018-08-12T19:50:42.551Z,1.20
2018-08-12T19:53:13.129Z,1.40
2018-08-12T19:55:43.934Z,1.50
2018-08-12T19:58:18.508Z,1.30
2018-08-12T20:00:48.640Z,1.20
2018-08-12T20:03:19.022Z,1.45
2018-08-12T20:05:49.147Z,1.37
2018-08-12T20:08:18.778Z,1.40
2018-08-12T20:10:49.037Z,1.30
2018-08-12T20:13:19.541Z,1.43
2018-08-12T20:15:50.044Z,1.50
2018-08-12T20:18:20.060Z,1.50
2018-08-12T20:20:49.543Z,1.67
2018-08-12T20:23:19.542Z,1.70
2018-08-12T20:25:49.673Z,1.83
2018-08-12T20:28:18.968Z,1.50
2018-08-12T20:30:49.133Z,1.43
2018-08-12T20:33:18.365Z,1.40
2018-08-12T20:35:47.639Z,1.60
2018-08-12T20:38:17.467Z,1.57
2018-08-12T20:40:46.427Z,1.40
2018-08-12T20:43:15.827Z,1.40
2018-08-12T20:45:45.161Z,1.60
2018-08-12T20:48:14.672Z,1.20
2018-08-12T20:50:43.879Z,1.13
2018-08-12T20:53:14.299Z,1.20
2018-08-12T20:55:43.749Z,1.20
2018-08-12T20:58:13.562Z,1.37
2018-08-12T21:00:43.227Z,1.20
2018-08-12T21:03:12.489Z,1.32
2018-08-12T21:05:42.107Z,1.40
2018-08-12T21:08:11.237Z,1.60
2018-08-12T21:10:40.392Z,1.40
2018-08-12T21:13:09.505Z,1.10
2018-08-12T21:15:38.541Z,1.40
2018-08-12T21:18:07.681Z,1.20
2018-08-12T21:20:36.733Z,1.30
2018-08-12T21:23:06.086Z,1.25
2018-08-12T21:25:35.431Z,1.50
2018-08-12T21:28:05.455Z,1.30
2018-08-12T21:30:34.512Z,1.40
2018-08-12T21:33:03.612Z,1.27
2018-08-12T21:35:32.555Z,1.30
2018-08-12T21:38:01.457Z,1.43
2018-08-12T21:40:30.741Z,1.90
2018-08-12T21:42:59.716Z,2.08
2018-08-12T21:45:28.680Z,1.50
2018-08-12T21:47:57.675Z,1.50
2018-08-12T21:50:26.532Z,1.50
2018-08-12T21:52:55.553Z,1.53
2018-08-12T21:55:24.698Z,1.50
2018-08-12T21:57:53.572Z,1.57
2018-08-12T22:00:22.470Z,1.47
2018-08-12T22:02:51.474Z,1.70
2018-08-12T22:05:20.478Z,1.23
2018-08-12T22:07:49.389Z,1.47
2018-08-12T22:10:18.721Z,1.52
2018-08-12T22:12:47.845Z,1.50
2018-08-12T22:15:17.054Z,1.40
2018-08-12T22:17:46.259Z,1.47
2018-08-12T22:20:16.120Z,1.25
2018-08-12T22:22:45.153Z,1.27
2018-08-12T22:25:14.202Z,1.50
2018-08-12T22:27:43.378Z,1.30
2018-08-12T22:30:14.862Z,1.30
2018-08-12T22:32:44.240Z,1.30
2018-08-12T22:35:13.300Z,1.67
2018-08-12T22:37:42.452Z,1.57
2018-08-12T22:40:11.569Z,1.40
2018-08-12T22:42:40.476Z,1.37
2018-08-12T22:45:10.765Z,1.10
2018-08-12T22:47:40.764Z,1.30
2018-08-12T22:50:09.831Z,1.30
2018-08-12T22:52:38.922Z,1.70
2018-08-12T22:55:08.662Z,1.50
2018-08-12T22:57:37.723Z,1.60
2018-08-12T23:00:10.243Z,1.97
2018-08-12T23:02:39.313Z,1.27
2018-08-12T23:05:08.865Z,1.77
2018-08-12T23:07:38.843Z,1.37
2018-08-12T23:10:08.291Z,1.30
2018-08-12T23:12:37.181Z,2.27
2018-08-12T23:15:17.477Z,1.40
2018-08-12T23:17:46.459Z,1.47
2018-08-12T23:20:15.860Z,1.43
2018-08-12T23:22:45.261Z,1.75
2018-08-12T23:25:14.481Z,2.20
2018-08-12T23:27:45.693Z,1.63
2018-08-12T23:30:15.906Z,1.60
2018-08-12T23:32:45.384Z,1.37
2018-08-12T23:35:14.391Z,1.23
2018-08-12T23:37:43.293Z,2.00
2018-08-12T23:40:12.237Z,1.45
2018-08-12T23:42:41.195Z,1.37
2018-08-12T23:45:10.203Z,1.40
2018-08-12T23:47:39.168Z,1.33
2018-08-12T23:50:08.117Z,1.37
2018-08-12T23:52:37.021Z,1.20
2018-08-12T23:55:05.887Z,1.87
2018-08-12T23:57:34.860Z,1.40
